sensor_id;sensor_type;location;lat;lon;timestamp;P1;durP1;ratioP1;P2;durP2;ratioP2
69392;SDS011;56582;44.624;20.378;2022-08-05T00:00:33;7.28;;;5.50;;
69392;SDS011;56582;44.624;20.378;2022-08-05T00:02:58;6.63;;;5.37;;
69392;SDS011;56582;44.624;20.378;2022-08-05T00:05:24;6.30;;;4.83;;
69392;SDS011;56582;44.624;20.378;2022-08-05T00:07:49;7.32;;;4.88;;
69392;SDS011;56582;44.624;20.378;2022-08-05T00:10:15;6.50;;;5.27;;
69392;SDS011;56582;44.624;20.378;2022-08-05T00:12:41;7.97;;;5.28;;
69392;SDS011;56582;44.624;20.378;2022-08-05T00:15:06;7.23;;;4.93;;
69392;SDS011;56582;44.624;20.378;2022-08-05T00:17:32;6.70;;;4.83;;
69392;SDS011;56582;44.624;20.378;2022-08-05T00:19:57;7.50;;;5.15;;
69392;SDS011;56582;44.624;20.378;2022-08-05T00:22:23;10.20;;;6.13;;
69392;SDS011;56582;44.624;20.378;2022-08-05T00:24:48;8.67;;;5.90;;
69392;SDS011;56582;44.624;20.378;2022-08-05T00:27:14;8.85;;;5.68;;
69392;SDS011;56582;44.624;20.378;2022-08-05T00:29:39;6.97;;;5.50;;
69392;SDS011;56582;44.624;20.378;2022-08-05T00:32:05;6.93;;;5.20;;
69392;SDS011;56582;44.624;20.378;2022-08-05T00:34:32;8.23;;;6.20;;
69392;SDS011;56582;44.624;20.378;2022-08-05T00:36:58;8.83;;;5.90;;
69392;SDS011;56582;44.624;20.378;2022-08-05T00:39:23;8.52;;;6.15;;
69392;SDS011;56582;44.624;20.378;2022-08-05T00:41:49;8.70;;;5.83;;
69392;SDS011;56582;44.624;20.378;2022-08-05T00:44:14;9.00;;;6.07;;
69392;SDS011;56582;44.624;20.378;2022-08-05T00:46:40;11.05;;;5.95;;
69392;SDS011;56582;44.624;20.378;2022-08-05T00:49:05;9.03;;;5.87;;
69392;SDS011;56582;44.624;20.378;2022-08-05T00:51:31;7.97;;;5.67;;
69392;SDS011;56582;44.624;20.378;2022-08-05T00:53:56;11.27;;;5.50;;
69392;SDS011;56582;44.624;20.378;2022-08-05T00:56:22;9.20;;;5.82;;
69392;SDS011;56582;44.624;20.378;2022-08-05T00:58:47;9.40;;;5.90;;
69392;SDS011;56582;44.624;20.378;2022-08-05T01:01:13;10.43;;;6.37;;
69392;SDS011;56582;44.624;20.378;2022-08-05T01:03:42;8.18;;;5.88;;
69392;SDS011;56582;44.624;20.378;2022-08-05T01:06:08;10.00;;;5.95;;
69392;SDS011;56582;44.624;20.378;2022-08-05T01:08:34;7.97;;;6.03;;
69392;SDS011;56582;44.624;20.378;2022-08-05T01:11:02;9.85;;;6.30;;
69392;SDS011;56582;44.624;20.378;2022-08-05T01:13:43;7.10;;;5.60;;
69392;SDS011;56582;44.624;20.378;2022-08-05T01:16:16;7.73;;;6.60;;
69392;SDS011;56582;44.624;20.378;2022-08-05T01:18:46;12.55;;;5.75;;
69392;SDS011;56582;44.624;20.378;2022-08-05T01:21:22;9.10;;;5.75;;
69392;SDS011;56582;44.624;20.378;2022-08-05T01:29:49;8.60;;;5.80;;
69392;SDS011;56582;44.624;20.378;2022-08-05T01:32:19;7.28;;;6.03;;
69392;SDS011;56582;44.624;20.378;2022-08-05T01:34:48;7.60;;;6.07;;
69392;SDS011;56582;44.624;20.378;2022-08-05T01:40:13;7.72;;;5.95;;
69392;SDS011;56582;44.624;20.378;2022-08-05T01:42:41;9.13;;;5.67;;
69392;SDS011;56582;44.624;20.378;2022-08-05T01:45:09;10.50;;;5.85;;
69392;SDS011;56582;44.624;20.378;2022-08-05T01:47:37;7.97;;;5.85;;
69392;SDS011;56582;44.624;20.378;2022-08-05T01:50:05;8.77;;;5.65;;
69392;SDS011;56582;44.624;20.378;2022-08-05T01:52:34;9.27;;;5.90;;
69392;SDS011;56582;44.624;20.378;2022-08-05T01:55:02;8.80;;;5.97;;
69392;SDS011;56582;44.624;20.378;2022-08-05T01:57:32;8.90;;;6.30;;
69392;SDS011;56582;44.624;20.378;2022-08-05T02:00:10;10.07;;;5.45;;
69392;SDS011;56582;44.624;20.378;2022-08-05T02:02:38;7.88;;;5.30;;
69392;SDS011;56582;44.624;20.378;2022-08-05T02:05:08;10.35;;;5.60;;
69392;SDS011;56582;44.624;20.378;2022-08-05T02:07:37;20.00;;;6.33;;
69392;SDS011;56582;44.624;20.378;2022-08-05T02:10:03;11.13;;;5.57;;
69392;SDS011;56582;44.624;20.378;2022-08-05T02:12:32;8.10;;;5.40;;
69392;SDS011;56582;44.624;20.378;2022-08-05T02:15:11;13.32;;;6.00;;
69392;SDS011;56582;44.624;20.378;2022-08-05T02:18:14;9.88;;;5.68;;
69392;SDS011;56582;44.624;20.378;2022-08-05T02:20:59;11.43;;;6.60;;
69392;SDS011;56582;44.624;20.378;2022-08-05T02:23:25;17.33;;;5.70;;
69392;SDS011;56582;44.624;20.378;2022-08-05T02:25:55;12.38;;;5.78;;
69392;SDS011;56582;44.624;20.378;2022-08-05T02:28:23;16.17;;;5.82;;
69392;SDS011;56582;44.624;20.378;2022-08-05T02:31:00;12.32;;;6.22;;
69392;SDS011;56582;44.624;20.378;2022-08-05T02:33:30;7.80;;;6.00;;
69392;SDS011;56582;44.624;20.378;2022-08-05T02:35:59;8.02;;;5.18;;
69392;SDS011;56582;44.624;20.378;2022-08-05T02:38:27;12.32;;;5.70;;
69392;SDS011;56582;44.624;20.378;2022-08-05T02:40:54;22.30;;;5.78;;
69392;SDS011;56582;44.624;20.378;2022-08-05T02:43:21;11.57;;;6.65;;
69392;SDS011;56582;44.624;20.378;2022-08-05T02:45:48;14.50;;;5.90;;
69392;SDS011;56582;44.624;20.378;2022-08-05T02:48:15;14.50;;;6.35;;
69392;SDS011;56582;44.624;20.378;2022-08-05T02:50:42;10.95;;;5.50;;
69392;SDS011;56582;44.624;20.378;2022-08-05T02:53:11;12.30;;;6.03;;
69392;SDS011;56582;44.624;20.378;2022-08-05T02:55:38;15.05;;;6.30;;
69392;SDS011;56582;44.624;20.378;2022-08-05T02:58:04;17.50;;;5.47;;
69392;SDS011;56582;44.624;20.378;2022-08-05T03:00:30;8.30;;;5.85;;
69392;SDS011;56582;44.624;20.378;2022-08-05T03:02:59;32.58;;;6.75;;
69392;SDS011;56582;44.624;20.378;2022-08-05T03:05:26;28.13;;;7.63;;
69392;SDS011;56582;44.624;20.378;2022-08-05T03:07:52;14.40;;;6.03;;
69392;SDS011;56582;44.624;20.378;2022-08-05T03:10:18;16.90;;;6.18;;
69392;SDS011;56582;44.624;20.378;2022-08-05T03:12:45;18.38;;;6.63;;
69392;SDS011;56582;44.624;20.378;2022-08-05T03:15:10;14.53;;;5.90;;
69392;SDS011;56582;44.624;20.378;2022-08-05T03:17:36;9.93;;;6.10;;
69392;SDS011;56582;44.624;20.378;2022-08-05T03:20:02;41.53;;;7.73;;
69392;SDS011;56582;44.624;20.378;2022-08-05T03:22:29;18.40;;;6.57;;
69392;SDS011;56582;44.624;20.378;2022-08-05T03:24:55;14.52;;;6.32;;
69392;SDS011;56582;44.624;20.378;2022-08-05T03:27:21;12.20;;;6.40;;
69392;SDS011;56582;44.624;20.378;2022-08-05T03:29:47;10.70;;;6.60;;
69392;SDS011;56582;44.624;20.378;2022-08-05T03:32:13;13.15;;;6.40;;
69392;SDS011;56582;44.624;20.378;2022-08-05T03:34:40;10.48;;;6.38;;
69392;SDS011;56582;44.624;20.378;2022-08-05T03:37:06;12.37;;;5.70;;
69392;SDS011;56582;44.624;20.378;2022-08-05T03:39:32;19.25;;;5.90;;
69392;SDS011;56582;44.624;20.378;2022-08-05T03:41:57;11.63;;;6.07;;
69392;SDS011;56582;44.624;20.378;2022-08-05T03:44:23;13.03;;;6.53;;
69392;SDS011;56582;44.624;20.378;2022-08-05T03:46:49;9.80;;;6.10;;
69392;SDS011;56582;44.624;20.378;2022-08-05T03:49:15;12.70;;;6.13;;
69392;SDS011;56582;44.624;20.378;2022-08-05T03:54:44;9.00;;;6.03;;
69392;SDS011;56582;44.624;20.378;2022-08-05T03:57:17;14.40;;;5.95;;
69392;SDS011;56582;44.624;20.378;2022-08-05T03:59:50;10.23;;;6.63;;
69392;SDS011;56582;44.624;20.378;2022-08-05T04:02:19;21.37;;;9.53;;
69392;SDS011;56582;44.624;20.378;2022-08-05T04:04:52;14.38;;;7.22;;
69392;SDS011;56582;44.624;20.378;2022-08-05T04:07:18;14.38;;;6.65;;
69392;SDS011;56582;44.624;20.378;2022-08-05T04:09:44;11.95;;;6.55;;
69392;SDS011;56582;44.624;20.378;2022-08-05T04:12:10;8.87;;;5.90;;
69392;SDS011;56582;44.624;20.378;2022-08-05T04:14:36;16.02;;;6.82;;
69392;SDS011;56582;44.624;20.378;2022-08-05T04:17:01;15.23;;;6.67;;
69392;SDS011;56582;44.624;20.378;2022-08-05T04:19:28;17.08;;;6.78;;
69392;SDS011;56582;44.624;20.378;2022-08-05T04:21:53;15.07;;;6.20;;
69392;SDS011;56582;44.624;20.378;2022-08-05T04:24:19;11.90;;;6.37;;
69392;SDS011;56582;44.624;20.378;2022-08-05T04:26:45;9.32;;;5.90;;
69392;SDS011;56582;44.624;20.378;2022-08-05T04:29:10;8.73;;;6.40;;
69392;SDS011;56582;44.624;20.378;2022-08-05T04:31:36;10.23;;;6.37;;
69392;SDS011;56582;44.624;20.378;2022-08-05T04:34:02;10.20;;;6.68;;
69392;SDS011;56582;44.624;20.378;2022-08-05T04:36:27;8.27;;;6.00;;
69392;SDS011;56582;44.624;20.378;2022-08-05T04:38:53;8.70;;;5.60;;
69392;SDS011;56582;44.624;20.378;2022-08-05T04:41:19;10.55;;;5.20;;
69392;SDS011;56582;44.624;20.378;2022-08-05T04:43:44;8.30;;;6.33;;
69392;SDS011;56582;44.624;20.378;2022-08-05T04:46:10;11.77;;;6.13;;
69392;SDS011;56582;44.624;20.378;2022-08-05T04:48:35;7.95;;;5.85;;
69392;SDS011;56582;44.624;20.378;2022-08-05T04:51:01;8.03;;;6.07;;
69392;SDS011;56582;44.624;20.378;2022-08-05T04:53:27;7.63;;;6.07;;
69392;SDS011;56582;44.624;20.378;2022-08-05T04:55:53;9.45;;;6.25;;
69392;SDS011;56582;44.624;20.378;2022-08-05T04:58:18;8.83;;;6.20;;
69392;SDS011;56582;44.624;20.378;2022-08-05T05:00:43;10.10;;;6.73;;
69392;SDS011;56582;44.624;20.378;2022-08-05T05:03:09;8.40;;;6.13;;
69392;SDS011;56582;44.624;20.378;2022-08-05T05:05:35;9.48;;;6.03;;
69392;SDS011;56582;44.624;20.378;2022-08-05T05:10:29;8.13;;;5.40;;
69392;SDS011;56582;44.624;20.378;2022-08-05T05:12:55;13.45;;;7.00;;
69392;SDS011;56582;44.624;20.378;2022-08-05T05:15:21;11.88;;;7.43;;
69392;SDS011;56582;44.624;20.378;2022-08-05T05:17:47;12.83;;;6.83;;
69392;SDS011;56582;44.624;20.378;2022-08-05T05:20:12;8.40;;;5.60;;
69392;SDS011;56582;44.624;20.378;2022-08-05T05:22:38;15.20;;;5.90;;
69392;SDS011;56582;44.624;20.378;2022-08-05T05:25:04;8.07;;;6.20;;
69392;SDS011;56582;44.624;20.378;2022-08-05T05:27:32;10.48;;;6.60;;
69392;SDS011;56582;44.624;20.378;2022-08-05T05:29:59;7.70;;;5.73;;
69392;SDS011;56582;44.624;20.378;2022-08-05T05:32:24;8.70;;;5.65;;
69392;SDS011;56582;44.624;20.378;2022-08-05T05:34:50;8.03;;;6.40;;
69392;SDS011;56582;44.624;20.378;2022-08-05T05:37:15;8.67;;;5.73;;
69392;SDS011;56582;44.624;20.378;2022-08-05T05:39:41;7.57;;;5.73;;
69392;SDS011;56582;44.624;20.378;2022-08-05T05:42:07;11.52;;;6.00;;
69392;SDS011;56582;44.624;20.378;2022-08-05T05:44:33;8.63;;;6.00;;
69392;SDS011;56582;44.624;20.378;2022-08-05T05:46:58;9.35;;;6.20;;
69392;SDS011;56582;44.624;20.378;2022-08-05T05:49:24;8.80;;;6.03;;
69392;SDS011;56582;44.624;20.378;2022-08-05T05:51:50;8.13;;;5.87;;
69392;SDS011;56582;44.624;20.378;2022-08-05T05:54:16;8.55;;;6.00;;
69392;SDS011;56582;44.624;20.378;2022-08-05T05:56:42;10.13;;;6.10;;
69392;SDS011;56582;44.624;20.378;2022-08-05T05:59:07;8.47;;;6.13;;
69392;SDS011;56582;44.624;20.378;2022-08-05T06:01:38;9.73;;;6.07;;
69392;SDS011;56582;44.624;20.378;2022-08-05T06:04:08;10.18;;;5.90;;
69392;SDS011;56582;44.624;20.378;2022-08-05T06:06:35;7.78;;;5.97;;
69392;SDS011;56582;44.624;20.378;2022-08-05T06:09:01;9.07;;;5.60;;
69392;SDS011;56582;44.624;20.378;2022-08-05T06:11:29;10.20;;;6.17;;
69392;SDS011;56582;44.624;20.378;2022-08-05T06:13:55;7.75;;;6.00;;
69392;SDS011;56582;44.624;20.378;2022-08-05T06:16:21;7.18;;;6.28;;
69392;SDS011;56582;44.624;20.378;2022-08-05T06:18:47;10.10;;;5.60;;
69392;SDS011;56582;44.624;20.378;2022-08-05T06:21:12;6.97;;;5.40;;
69392;SDS011;56582;44.624;20.378;2022-08-05T06:23:38;7.60;;;5.13;;
69392;SDS011;56582;44.624;20.378;2022-08-05T06:26:03;6.97;;;6.03;;
69392;SDS011;56582;44.624;20.378;2022-08-05T06:28:29;7.83;;;5.17;;
69392;SDS011;56582;44.624;20.378;2022-08-05T06:30:54;8.03;;;5.73;;
69392;SDS011;56582;44.624;20.378;2022-08-05T06:33:19;6.87;;;5.63;;
69392;SDS011;56582;44.624;20.378;2022-08-05T06:35:45;9.50;;;5.63;;
69392;SDS011;56582;44.624;20.378;2022-08-05T06:38:10;7.77;;;5.03;;
69392;SDS011;56582;44.624;20.378;2022-08-05T06:40:36;8.60;;;4.97;;
69392;SDS011;56582;44.624;20.378;2022-08-05T06:43:01;7.13;;;5.33;;
69392;SDS011;56582;44.624;20.378;2022-08-05T06:45:27;7.13;;;5.00;;
69392;SDS011;56582;44.624;20.378;2022-08-05T06:47:52;8.13;;;5.30;;
69392;SDS011;56582;44.624;20.378;2022-08-05T06:50:17;7.33;;;5.07;;
69392;SDS011;56582;44.624;20.378;2022-08-05T06:52:43;9.27;;;5.77;;
69392;SDS011;56582;44.624;20.378;2022-08-05T06:55:08;6.93;;;5.03;;
69392;SDS011;56582;44.624;20.378;2022-08-05T06:57:34;6.53;;;5.00;;
69392;SDS011;56582;44.624;20.378;2022-08-05T06:59:59;8.77;;;4.97;;
69392;SDS011;56582;44.624;20.378;2022-08-05T07:02:27;6.68;;;5.07;;
69392;SDS011;56582;44.624;20.378;2022-08-05T07:04:53;7.97;;;5.07;;
69392;SDS011;56582;44.624;20.378;2022-08-05T07:07:19;7.22;;;5.20;;
69392;SDS011;56582;44.624;20.378;2022-08-05T07:09:45;6.47;;;5.70;;
69392;SDS011;56582;44.624;20.378;2022-08-05T07:12:11;6.60;;;5.07;;
69392;SDS011;56582;44.624;20.378;2022-08-05T07:14:57;6.28;;;4.60;;
69392;SDS011;56582;44.624;20.378;2022-08-05T07:17:41;6.20;;;4.55;;
69392;SDS011;56582;44.624;20.378;2022-08-05T07:20:07;4.80;;;3.90;;
69392;SDS011;56582;44.624;20.378;2022-08-05T07:22:33;8.52;;;4.50;;
69392;SDS011;56582;44.624;20.378;2022-08-05T07:25:00;5.80;;;4.63;;
69392;SDS011;56582;44.624;20.378;2022-08-05T07:27:26;6.63;;;4.75;;
69392;SDS011;56582;44.624;20.378;2022-08-05T07:29:52;6.57;;;4.83;;
69392;SDS011;56582;44.624;20.378;2022-08-05T07:32:18;6.03;;;4.60;;
69392;SDS011;56582;44.624;20.378;2022-08-05T07:34:47;5.85;;;4.25;;
69392;SDS011;56582;44.624;20.378;2022-08-05T07:37:13;5.35;;;4.05;;
69392;SDS011;56582;44.624;20.378;2022-08-05T07:39:39;5.88;;;4.70;;
69392;SDS011;56582;44.624;20.378;2022-08-05T07:42:05;6.03;;;3.97;;
69392;SDS011;56582;44.624;20.378;2022-08-05T07:44:30;6.10;;;4.53;;
69392;SDS011;56582;44.624;20.378;2022-08-05T07:46:57;6.60;;;4.53;;
69392;SDS011;56582;44.624;20.378;2022-08-05T07:49:23;5.13;;;4.10;;
69392;SDS011;56582;44.624;20.378;2022-08-05T07:51:48;5.73;;;4.50;;
69392;SDS011;56582;44.624;20.378;2022-08-05T07:54:14;7.30;;;4.50;;
69392;SDS011;56582;44.624;20.378;2022-08-05T07:56:40;6.18;;;4.95;;
69392;SDS011;56582;44.624;20.378;2022-08-05T07:59:06;7.07;;;4.28;;
69392;SDS011;56582;44.624;20.378;2022-08-05T08:01:31;6.60;;;4.33;;
69392;SDS011;56582;44.624;20.378;2022-08-05T08:03:57;6.73;;;4.50;;
69392;SDS011;56582;44.624;20.378;2022-08-05T08:06:22;6.03;;;4.80;;
69392;SDS011;56582;44.624;20.378;2022-08-05T08:08:48;7.97;;;5.17;;
69392;SDS011;56582;44.624;20.378;2022-08-05T08:11:13;7.33;;;5.03;;
69392;SDS011;56582;44.624;20.378;2022-08-05T08:13:39;5.50;;;4.47;;
69392;SDS011;56582;44.624;20.378;2022-08-05T08:16:06;6.68;;;4.40;;
69392;SDS011;56582;44.624;20.378;2022-08-05T08:18:31;6.30;;;4.73;;
69392;SDS011;56582;44.624;20.378;2022-08-05T08:20:57;6.05;;;4.22;;
69392;SDS011;56582;44.624;20.378;2022-08-05T08:23:23;7.67;;;4.67;;
69392;SDS011;56582;44.624;20.378;2022-08-05T08:25:48;8.40;;;4.90;;
69392;SDS011;56582;44.624;20.378;2022-08-05T08:28:13;6.40;;;5.00;;
69392;SDS011;56582;44.624;20.378;2022-08-05T08:30:39;6.68;;;4.00;;
69392;SDS011;56582;44.624;20.378;2022-08-05T08:33:10;5.20;;;4.03;;
69392;SDS011;56582;44.624;20.378;2022-08-05T08:35:36;7.05;;;4.30;;
69392;SDS011;56582;44.624;20.378;2022-08-05T08:38:02;5.80;;;4.60;;
69392;SDS011;56582;44.624;20.378;2022-08-05T08:40:29;6.93;;;5.30;;
69392;SDS011;56582;44.624;20.378;2022-08-05T08:42:57;6.45;;;4.45;;
69392;SDS011;56582;44.624;20.378;2022-08-05T08:45:24;6.23;;;4.47;;
69392;SDS011;56582;44.624;20.378;2022-08-05T08:47:50;7.57;;;4.10;;
69392;SDS011;56582;44.624;20.378;2022-08-05T08:50:18;6.43;;;4.93;;
69392;SDS011;56582;44.624;20.378;2022-08-05T08:52:46;7.18;;;4.15;;
69392;SDS011;56582;44.624;20.378;2022-08-05T08:55:18;10.43;;;5.07;;
69392;SDS011;56582;44.624;20.378;2022-08-05T08:57:45;7.43;;;4.13;;
69392;SDS011;56582;44.624;20.378;2022-08-05T09:00:12;6.18;;;4.30;;
69392;SDS011;56582;44.624;20.378;2022-08-05T09:02:37;6.22;;;4.80;;
69392;SDS011;56582;44.624;20.378;2022-08-05T09:05:03;7.33;;;5.97;;
69392;SDS011;56582;44.624;20.378;2022-08-05T09:07:29;6.00;;;4.90;;
69392;SDS011;56582;44.624;20.378;2022-08-05T09:09:54;8.47;;;5.67;;
69392;SDS011;56582;44.624;20.378;2022-08-05T09:12:20;5.83;;;4.73;;
69392;SDS011;56582;44.624;20.378;2022-08-05T09:14:45;5.97;;;4.18;;
69392;SDS011;56582;44.624;20.378;2022-08-05T09:17:13;6.43;;;4.47;;
69392;SDS011;56582;44.624;20.378;2022-08-05T09:19:38;5.00;;;3.67;;
69392;SDS011;56582;44.624;20.378;2022-08-05T09:22:04;5.57;;;4.00;;
69392;SDS011;56582;44.624;20.378;2022-08-05T09:24:29;5.13;;;3.83;;
69392;SDS011;56582;44.624;20.378;2022-08-05T09:26:55;6.20;;;3.80;;
69392;SDS011;56582;44.624;20.378;2022-08-05T09:29:35;4.85;;;3.60;;
69392;SDS011;56582;44.624;20.378;2022-08-05T09:32:10;5.30;;;3.90;;
69392;SDS011;56582;44.624;20.378;2022-08-05T09:34:51;5.53;;;3.90;;
69392;SDS011;56582;44.624;20.378;2022-08-05T09:37:19;6.10;;;4.05;;
69392;SDS011;56582;44.624;20.378;2022-08-05T09:39:46;5.65;;;3.88;;
69392;SDS011;56582;44.624;20.378;2022-08-05T09:42:15;8.97;;;3.97;;
69392;SDS011;56582;44.624;20.378;2022-08-05T09:44:43;5.60;;;4.53;;
69392;SDS011;56582;44.624;20.378;2022-08-05T09:47:14;6.72;;;4.15;;
69392;SDS011;56582;44.624;20.378;2022-08-05T09:49:45;5.90;;;4.63;;
69392;SDS011;56582;44.624;20.378;2022-08-05T09:52:22;5.53;;;3.93;;
69392;SDS011;56582;44.624;20.378;2022-08-05T09:55:05;4.80;;;3.97;;
69392;SDS011;56582;44.624;20.378;2022-08-05T09:57:36;5.55;;;4.32;;
69392;SDS011;56582;44.624;20.378;2022-08-05T10:00:14;5.35;;;4.18;;
69392;SDS011;56582;44.624;20.378;2022-08-05T10:02:44;7.68;;;5.05;;
69392;SDS011;56582;44.624;20.378;2022-08-05T10:10:14;7.43;;;5.00;;
69392;SDS011;56582;44.624;20.378;2022-08-05T10:12:41;5.30;;;4.20;;
69392;SDS011;56582;44.624;20.378;2022-08-05T10:15:16;6.25;;;3.83;;
69392;SDS011;56582;44.624;20.378;2022-08-05T10:23:13;7.55;;;4.60;;
69392;SDS011;56582;44.624;20.378;2022-08-05T10:25:46;6.80;;;3.70;;
69392;SDS011;56582;44.624;20.378;2022-08-05T10:28:12;6.30;;;4.53;;
69392;SDS011;56582;44.624;20.378;2022-08-05T10:30:37;6.38;;;4.18;;
69392;SDS011;56582;44.624;20.378;2022-08-05T10:33:04;5.47;;;4.55;;
69392;SDS011;56582;44.624;20.378;2022-08-05T10:35:30;5.93;;;4.33;;
69392;SDS011;56582;44.624;20.378;2022-08-05T10:37:57;6.80;;;4.35;;
69392;SDS011;56582;44.624;20.378;2022-08-05T10:42:53;6.57;;;4.63;;
69392;SDS011;56582;44.624;20.378;2022-08-05T10:45:26;6.32;;;4.50;;
69392;SDS011;56582;44.624;20.378;2022-08-05T10:47:54;5.93;;;3.90;;
69392;SDS011;56582;44.624;20.378;2022-08-05T10:50:21;5.95;;;4.50;;
69392;SDS011;56582;44.624;20.378;2022-08-05T10:52:51;5.70;;;3.88;;
69392;SDS011;56582;44.624;20.378;2022-08-05T10:55:23;5.07;;;4.45;;
69392;SDS011;56582;44.624;20.378;2022-08-05T10:58:08;5.13;;;3.83;;
69392;SDS011;56582;44.624;20.378;2022-08-05T11:00:35;6.65;;;4.53;;
69392;SDS011;56582;44.624;20.378;2022-08-05T11:05:35;5.88;;;4.20;;
69392;SDS011;56582;44.624;20.378;2022-08-05T11:08:02;5.88;;;4.03;;
69392;SDS011;56582;44.624;20.378;2022-08-05T11:10:29;7.17;;;3.87;;
69392;SDS011;56582;44.624;20.378;2022-08-05T11:12:56;5.00;;;3.90;;
69392;SDS011;56582;44.624;20.378;2022-08-05T11:17:54;5.38;;;3.92;;
69392;SDS011;56582;44.624;20.378;2022-08-05T11:20:31;5.03;;;3.95;;
69392;SDS011;56582;44.624;20.378;2022-08-05T11:22:59;6.57;;;3.40;;
69392;SDS011;56582;44.624;20.378;2022-08-05T11:27:56;5.78;;;3.95;;
69392;SDS011;56582;44.624;20.378;2022-08-05T11:33:29;5.13;;;3.90;;
69392;SDS011;56582;44.624;20.378;2022-08-05T11:41:14;5.70;;;4.13;;
69392;SDS011;56582;44.624;20.378;2022-08-05T11:43:44;6.10;;;4.07;;
69392;SDS011;56582;44.624;20.378;2022-08-05T11:49:18;6.55;;;3.85;;
69392;SDS011;56582;44.624;20.378;2022-08-05T11:51:46;6.05;;;4.30;;
69392;SDS011;56582;44.624;20.378;2022-08-05T11:54:29;4.78;;;3.60;;
69392;SDS011;56582;44.624;20.378;2022-08-05T11:56:58;5.10;;;4.00;;
69392;SDS011;56582;44.624;20.378;2022-08-05T11:59:26;6.83;;;3.80;;
69392;SDS011;56582;44.624;20.378;2022-08-05T12:04:47;4.70;;;4.00;;
69392;SDS011;56582;44.624;20.378;2022-08-05T12:07:14;6.13;;;4.03;;
69392;SDS011;56582;44.624;20.378;2022-08-05T12:09:48;5.57;;;4.35;;
69392;SDS011;56582;44.624;20.378;2022-08-05T12:12:21;5.13;;;4.00;;
69392;SDS011;56582;44.624;20.378;2022-08-05T12:14:53;4.63;;;3.70;;
69392;SDS011;56582;44.624;20.378;2022-08-05T12:17:19;5.90;;;4.10;;
69392;SDS011;56582;44.624;20.378;2022-08-05T12:19:52;4.93;;;3.77;;
69392;SDS011;56582;44.624;20.378;2022-08-05T12:22:20;5.30;;;3.95;;
69392;SDS011;56582;44.624;20.378;2022-08-05T12:24:51;5.85;;;4.50;;
69392;SDS011;56582;44.624;20.378;2022-08-05T12:27:24;5.30;;;4.37;;
69392;SDS011;56582;44.624;20.378;2022-08-05T12:32:26;6.55;;;4.00;;
69392;SDS011;56582;44.624;20.378;2022-08-05T12:34:52;5.35;;;4.35;;
69392;SDS011;56582;44.624;20.378;2022-08-05T12:37:18;5.63;;;4.57;;
69392;SDS011;56582;44.624;20.378;2022-08-05T12:39:44;5.00;;;3.80;;
69392;SDS011;56582;44.624;20.378;2022-08-05T12:42:10;6.30;;;4.45;;
69392;SDS011;56582;44.624;20.378;2022-08-05T12:44:38;6.50;;;4.27;;
69392;SDS011;56582;44.624;20.378;2022-08-05T12:47:04;5.45;;;4.00;;
69392;SDS011;56582;44.624;20.378;2022-08-05T12:49:40;5.15;;;3.90;;
69392;SDS011;56582;44.624;20.378;2022-08-05T12:52:13;6.05;;;3.63;;
69392;SDS011;56582;44.624;20.378;2022-08-05T12:54:44;5.00;;;3.78;;
69392;SDS011;56582;44.624;20.378;2022-08-05T12:57:11;6.90;;;4.40;;
69392;SDS011;56582;44.624;20.378;2022-08-05T13:02:10;5.63;;;4.10;;
69392;SDS011;56582;44.624;20.378;2022-08-05T13:04:38;6.50;;;4.55;;
69392;SDS011;56582;44.624;20.378;2022-08-05T13:07:05;5.43;;;4.33;;
69392;SDS011;56582;44.624;20.378;2022-08-05T13:09:36;6.55;;;4.30;;
69392;SDS011;56582;44.624;20.378;2022-08-05T13:12:13;4.72;;;3.88;;
69392;SDS011;56582;44.624;20.378;2022-08-05T13:14:40;6.78;;;4.32;;
69392;SDS011;56582;44.624;20.378;2022-08-05T13:17:09;5.63;;;3.97;;
69392;SDS011;56582;44.624;20.378;2022-08-05T13:19:41;6.47;;;4.27;;
69392;SDS011;56582;44.624;20.378;2022-08-05T13:22:29;6.25;;;5.05;;
69392;SDS011;56582;44.624;20.378;2022-08-05T13:25:02;8.20;;;4.38;;
69392;SDS011;56582;44.624;20.378;2022-08-05T13:27:31;6.22;;;4.30;;
69392;SDS011;56582;44.624;20.378;2022-08-05T13:29:57;6.00;;;4.45;;
69392;SDS011;56582;44.624;20.378;2022-08-05T13:32:23;7.80;;;4.27;;
69392;SDS011;56582;44.624;20.378;2022-08-05T13:34:49;5.45;;;4.20;;
69392;SDS011;56582;44.624;20.378;2022-08-05T13:37:16;5.93;;;4.55;;
69392;SDS011;56582;44.624;20.378;2022-08-05T13:39:42;7.40;;;4.37;;
69392;SDS011;56582;44.624;20.378;2022-08-05T13:42:08;6.70;;;4.28;;
69392;SDS011;56582;44.624;20.378;2022-08-05T13:44:34;6.40;;;4.30;;
69392;SDS011;56582;44.624;20.378;2022-08-05T13:47:00;5.37;;;4.47;;
69392;SDS011;56582;44.624;20.378;2022-08-05T13:49:26;6.03;;;4.15;;
69392;SDS011;56582;44.624;20.378;2022-08-05T13:51:51;6.57;;;4.80;;
69392;SDS011;56582;44.624;20.378;2022-08-05T13:54:16;6.30;;;4.30;;
69392;SDS011;56582;44.624;20.378;2022-08-05T13:56:44;7.00;;;4.55;;
69392;SDS011;56582;44.624;20.378;2022-08-05T13:59:10;7.10;;;4.53;;
69392;SDS011;56582;44.624;20.378;2022-08-05T14:01:35;5.90;;;4.30;;
69392;SDS011;56582;44.624;20.378;2022-08-05T14:04:01;5.73;;;4.53;;
69392;SDS011;56582;44.624;20.378;2022-08-05T14:06:45;7.53;;;4.70;;
69392;SDS011;56582;44.624;20.378;2022-08-05T14:09:10;5.73;;;4.57;;
69392;SDS011;56582;44.624;20.378;2022-08-05T14:11:36;6.20;;;4.45;;
69392;SDS011;56582;44.624;20.378;2022-08-05T14:14:05;6.80;;;5.00;;
69392;SDS011;56582;44.624;20.378;2022-08-05T14:16:30;6.33;;;4.57;;
69392;SDS011;56582;44.624;20.378;2022-08-05T14:18:56;6.83;;;4.37;;
69392;SDS011;56582;44.624;20.378;2022-08-05T14:21:21;5.23;;;4.20;;
69392;SDS011;56582;44.624;20.378;2022-08-05T14:23:46;6.93;;;4.45;;
69392;SDS011;56582;44.624;20.378;2022-08-05T14:26:12;6.37;;;4.37;;
69392;SDS011;56582;44.624;20.378;2022-08-05T14:28:37;8.03;;;4.93;;
69392;SDS011;56582;44.624;20.378;2022-08-05T14:31:03;6.93;;;4.80;;
69392;SDS011;56582;44.624;20.378;2022-08-05T14:33:29;6.27;;;5.10;;
69392;SDS011;56582;44.624;20.378;2022-08-05T14:35:55;5.80;;;4.65;;
69392;SDS011;56582;44.624;20.378;2022-08-05T14:38:21;8.37;;;4.40;;
69392;SDS011;56582;44.624;20.378;2022-08-05T14:40:47;6.80;;;5.20;;
69392;SDS011;56582;44.624;20.378;2022-08-05T14:43:12;6.20;;;5.43;;
69392;SDS011;56582;44.624;20.378;2022-08-05T14:45:38;6.63;;;5.20;;
69392;SDS011;56582;44.624;20.378;2022-08-05T14:48:03;6.93;;;5.40;;
69392;SDS011;56582;44.624;20.378;2022-08-05T14:50:29;6.53;;;4.73;;
69392;SDS011;56582;44.624;20.378;2022-08-05T14:52:54;5.70;;;4.50;;
69392;SDS011;56582;44.624;20.378;2022-08-05T14:55:20;5.20;;;3.92;;
69392;SDS011;56582;44.624;20.378;2022-08-05T14:57:45;5.77;;;3.63;;
69392;SDS011;56582;44.624;20.378;2022-08-05T15:00:11;5.73;;;3.70;;
69392;SDS011;56582;44.624;20.378;2022-08-05T15:02:36;5.97;;;3.80;;
69392;SDS011;56582;44.624;20.378;2022-08-05T15:05:02;6.37;;;4.07;;
69392;SDS011;56582;44.624;20.378;2022-08-05T15:07:27;9.32;;;4.45;;
69392;SDS011;56582;44.624;20.378;2022-08-05T15:09:53;5.60;;;3.93;;
69392;SDS011;56582;44.624;20.378;2022-08-05T15:12:18;5.27;;;3.73;;
69392;SDS011;56582;44.624;20.378;2022-08-05T15:14:44;5.97;;;3.57;;
69392;SDS011;56582;44.624;20.378;2022-08-05T15:17:10;4.88;;;3.60;;
69392;SDS011;56582;44.624;20.378;2022-08-05T15:19:35;5.03;;;3.27;;
69392;SDS011;56582;44.624;20.378;2022-08-05T15:22:01;6.03;;;3.85;;
69392;SDS011;56582;44.624;20.378;2022-08-05T15:24:26;5.30;;;3.67;;
69392;SDS011;56582;44.624;20.378;2022-08-05T15:26:52;5.68;;;3.60;;